createdAt,value
2023-02-15T00:04:57.515Z,1.15
2023-02-15T00:10:02.451Z,1.20
2023-02-15T00:15:07.824Z,1.83
2023-02-15T00:20:12.113Z,1.58
2023-02-15T00:25:17.219Z,1.15
2023-02-15T00:30:21.091Z,1.40
2023-02-15T00:35:24.609Z,0.90
2023-02-15T00:40:29.537Z,1.13
2023-02-15T00:50:35.899Z,0.93
2023-02-15T00:55:41.409Z,1.40
2023-02-15T01:00:46.397Z,1.45
2023-02-15T01:05:51.431Z,1.20
2023-02-15T01:10:56.359Z,0.95
2023-02-15T01:16:00.146Z,1.15
2023-02-15T01:21:12.035Z,1.00
2023-02-15T01:26:17.820Z,1.13
2023-02-15T01:31:23.257Z,0.80
2023-02-15T01:36:26.736Z,1.00
2023-02-15T01:41:32.056Z,1.15
2023-02-15T01:46:39.952Z,1.10
2023-02-15T01:51:47.620Z,1.40
2023-02-15T01:56:53.175Z,1.20
2023-02-15T02:02:01.708Z,1.40
2023-02-15T02:07:06.717Z,1.20
2023-02-15T02:12:12.351Z,1.17
2023-02-15T02:17:20.460Z,1.33
2023-02-15T02:23:08.242Z,1.85
2023-02-15T02:28:36.502Z,1.52
2023-02-15T02:33:56.509Z,1.20
2023-02-15T02:39:15.260Z,1.65
2023-02-15T02:44:24.719Z,1.10
2023-02-15T02:49:35.279Z,1.10
2023-02-15T02:54:38.656Z,0.90
2023-02-15T02:59:46.701Z,1.20
2023-02-15T03:04:59.744Z,1.10
2023-02-15T03:10:05.876Z,1.02
2023-02-15T03:15:12.872Z,1.15
2023-02-15T03:20:26.572Z,1.20
2023-02-15T03:25:35.322Z,1.40
2023-02-15T03:30:41.527Z,2.08
2023-02-15T03:35:52.724Z,1.20
2023-02-15T03:41:13.816Z,1.20
2023-02-15T03:46:26.817Z,1.48
2023-02-15T03:51:36.352Z,1.15
2023-02-15T03:56:42.343Z,1.20
2023-02-15T04:02:00.664Z,1.23
2023-02-15T04:07:07.630Z,1.60
2023-02-15T04:12:11.276Z,1.20
2023-02-15T04:17:14.788Z,1.98
2023-02-15T04:22:36.915Z,1.20
2023-02-15T04:27:40.871Z,1.42
2023-02-15T04:32:44.717Z,1.13
2023-02-15T04:37:49.487Z,1.63
2023-02-15T04:42:53.047Z,1.60
2023-02-15T04:47:56.689Z,1.60
2023-02-15T04:53:01.859Z,1.63
2023-02-15T04:58:05.802Z,2.33
2023-02-15T05:03:09.563Z,1.90
2023-02-15T05:08:14.496Z,1.20
2023-02-15T05:13:18.300Z,1.30
2023-02-15T05:18:23.257Z,1.60
2023-02-15T05:28:31.360Z,1.87
2023-02-15T05:33:35.904Z,1.65
2023-02-15T05:38:41.169Z,1.70
2023-02-15T05:43:45.015Z,1.75
2023-02-15T05:48:48.542Z,1.60
2023-02-15T05:53:53.334Z,1.80
2023-02-15T05:58:57.096Z,2.40
2023-02-15T06:04:00.463Z,1.48
2023-02-15T06:09:05.618Z,2.13
2023-02-15T06:14:09.004Z,2.03
2023-02-15T06:19:12.456Z,1.58
2023-02-15T06:24:17.348Z,1.60
2023-02-15T06:34:24.175Z,1.73
2023-02-15T06:39:29.100Z,1.90
2023-02-15T06:44:32.531Z,2.22
2023-02-15T06:49:36.034Z,1.80
2023-02-15T06:54:40.811Z,1.85
2023-02-15T07:04:47.470Z,2.03
2023-02-15T07:09:52.521Z,1.92
2023-02-15T07:15:05.681Z,2.03
2023-02-15T07:20:12.861Z,2.13
2023-02-15T07:25:16.440Z,1.98
2023-02-15T07:30:21.689Z,2.00
2023-02-15T07:35:25.219Z,1.95
2023-02-15T07:40:29.043Z,1.80
2023-02-15T07:45:33.851Z,1.75
2023-02-15T07:55:40.739Z,2.03
2023-02-15T08:01:02.890Z,1.75
2023-02-15T08:06:07.148Z,1.92
2023-02-15T08:11:37.681Z,1.67
2023-02-15T08:16:44.157Z,1.48
2023-02-15T08:21:49.602Z,1.83
2023-02-15T08:26:54.146Z,2.00
2023-02-15T08:32:03.445Z,1.90
2023-02-15T08:37:07.857Z,1.98
2023-02-15T08:42:11.360Z,1.88
2023-02-15T08:47:16.228Z,2.10
2023-02-15T08:57:22.798Z,1.70
2023-02-15T09:02:27.928Z,2.00
2023-02-15T09:07:31.436Z,1.88
2023-02-15T09:12:34.968Z,1.95
2023-02-15T09:17:39.906Z,2.00
2023-02-15T09:27:46.586Z,1.77
2023-02-15T09:32:51.558Z,1.70
2023-02-15T09:43:25.495Z,1.38
2023-02-15T09:48:53.371Z,1.60
2023-02-15T09:54:12.600Z,1.60
2023-02-15T09:59:27.274Z,1.48
2023-02-15T10:04:48.854Z,1.77
2023-02-15T10:10:03.879Z,1.02
2023-02-15T10:20:30.116Z,1.50
2023-02-15T10:25:44.413Z,1.38
2023-02-15T10:30:51.737Z,1.60
2023-02-15T10:36:09.319Z,1.40
2023-02-15T10:41:25.357Z,1.60
2023-02-15T10:46:47.334Z,1.70
2023-02-15T10:52:08.445Z,1.52
2023-02-15T10:57:23.833Z,1.55
2023-02-15T11:02:39.597Z,1.60
2023-02-15T11:07:47.744Z,1.38
2023-02-15T11:12:52.269Z,1.40
2023-02-15T11:18:02.465Z,1.70
2023-02-15T11:23:17.349Z,1.50
2023-02-15T11:28:25.733Z,1.60
2023-02-15T11:33:34.019Z,1.88
2023-02-15T11:38:40.631Z,1.60
2023-02-15T11:43:52.754Z,1.50
2023-02-15T11:48:56.228Z,1.60
2023-02-15T11:54:01.543Z,1.33
2023-02-15T11:59:11.723Z,1.67
2023-02-15T12:04:23.001Z,1.55
2023-02-15T12:09:35.924Z,1.10
2023-02-15T12:14:50.117Z,1.30
2023-02-15T12:19:55.108Z,1.23
2023-02-15T12:30:19.272Z,1.40
2023-02-15T12:35:30.409Z,1.17
2023-02-15T12:40:37.206Z,1.40
2023-02-15T12:45:40.996Z,1.08
2023-02-15T12:50:45.586Z,1.20
2023-02-15T12:55:55.644Z,1.30
2023-02-15T13:01:14.171Z,1.35
2023-02-15T13:06:20.271Z,1.10
2023-02-15T13:11:31.204Z,1.30
2023-02-15T13:16:38.054Z,1.48
2023-02-15T13:21:46.117Z,1.40
2023-02-15T13:26:51.668Z,1.38
2023-02-15T13:31:57.032Z,1.40
2023-02-15T13:37:07.832Z,1.20
2023-02-15T13:42:23.605Z,1.33
2023-02-15T13:47:32.672Z,1.45
2023-02-15T13:52:44.366Z,1.50
2023-02-15T13:58:11.523Z,1.10
2023-02-15T14:03:42.349Z,1.20
2023-02-15T14:09:01.499Z,1.38
2023-02-15T14:14:46.360Z,1.60
2023-02-15T14:19:55.214Z,1.40
2023-02-15T14:25:09.677Z,1.80
2023-02-15T14:30:22.806Z,1.65
2023-02-15T14:35:30.008Z,1.50
2023-02-15T14:40:59.253Z,1.38
2023-02-15T14:46:13.066Z,1.30
2023-02-15T14:51:50.506Z,1.17
2023-02-15T14:57:25.009Z,1.23
2023-02-15T15:02:41.917Z,1.42
2023-02-15T15:07:48.324Z,1.30
2023-02-15T15:12:53.824Z,1.50
2023-02-15T15:18:01.003Z,1.70
2023-02-15T15:23:41.276Z,1.50
2023-02-15T15:28:59.523Z,1.50
2023-02-15T15:34:46.481Z,1.63
2023-02-15T15:40:24.292Z,1.33
2023-02-15T15:46:08.180Z,1.40
2023-02-15T15:51:20.185Z,1.65
2023-02-15T15:56:29.236Z,1.40
2023-02-15T16:01:37.315Z,1.42
2023-02-15T16:06:43.313Z,1.50
2023-02-15T16:11:49.372Z,1.50
2023-02-15T16:16:56.370Z,1.52
2023-02-15T16:22:03.950Z,1.50
2023-02-15T16:27:35.625Z,1.75
2023-02-15T16:32:39.090Z,1.20
2023-02-15T16:37:44.012Z,1.20
2023-02-15T16:42:47.503Z,1.10
2023-02-15T16:47:55.358Z,1.10
2023-02-15T16:53:01.348Z,0.90
2023-02-15T16:58:07.093Z,1.00
2023-02-15T17:03:24.270Z,1.30
2023-02-15T17:08:31.589Z,1.63
2023-02-15T17:13:35.060Z,1.52
2023-02-15T17:18:46.115Z,1.40
2023-02-15T17:23:52.540Z,1.27
2023-02-15T17:28:58.435Z,1.08
2023-02-15T17:34:03.028Z,1.10
2023-02-15T17:39:21.123Z,1.15
2023-02-15T17:44:24.451Z,0.95
2023-02-15T17:49:29.526Z,1.20
2023-02-15T17:54:51.486Z,1.10
2023-02-15T18:00:12.539Z,0.90
2023-02-15T18:05:34.278Z,1.00
2023-02-15T18:10:56.443Z,0.88
2023-02-15T18:16:00.070Z,0.73
2023-02-15T18:21:03.959Z,0.93
2023-02-15T18:26:12.229Z,0.80
2023-02-15T18:31:16.461Z,0.70
2023-02-15T18:36:24.009Z,1.13
2023-02-15T18:41:28.889Z,0.77
2023-02-15T18:46:32.380Z,0.98
2023-02-15T18:51:40.300Z,0.82
2023-02-15T18:56:45.274Z,1.17
2023-02-15T19:07:17.876Z,1.13
2023-02-15T19:12:22.766Z,0.98
2023-02-15T19:17:26.544Z,1.25
2023-02-15T19:22:32.996Z,0.90
2023-02-15T19:27:38.156Z,1.00
2023-02-15T19:32:41.556Z,0.95
2023-02-15T19:37:47.956Z,0.98
2023-02-15T19:42:53.570Z,1.10
2023-02-15T19:47:57.230Z,1.10
2023-02-15T19:53:00.863Z,0.95
2023-02-15T19:58:05.929Z,0.95
2023-02-15T20:03:09.422Z,1.08
2023-02-15T20:08:18.643Z,1.00
2023-02-15T20:13:23.510Z,1.10
2023-02-15T20:23:32.701Z,1.00
2023-02-15T20:28:37.612Z,1.42
2023-02-15T20:33:41.114Z,1.10
2023-02-15T20:38:45.387Z,1.10
2023-02-15T20:43:50.346Z,1.23
2023-02-15T20:48:53.721Z,1.20
2023-02-15T20:53:57.218Z,1.27
2023-02-15T20:59:02.011Z,1.30
2023-02-15T21:04:08.539Z,1.02
2023-02-15T21:09:14.739Z,1.02
2023-02-15T21:14:21.588Z,1.23
2023-02-15T21:19:26.438Z,1.00
2023-02-15T21:29:36.020Z,1.20
2023-02-15T21:34:40.114Z,1.08
2023-02-15T21:39:43.513Z,0.73
2023-02-15T21:45:14.445Z,1.10
2023-02-15T21:50:36.412Z,0.90
2023-02-15T21:55:40.024Z,0.80
2023-02-15T22:00:45.077Z,0.85
2023-02-15T22:05:48.459Z,1.33
2023-02-15T22:10:52.047Z,1.00
2023-02-15T22:15:57.466Z,0.80
2023-02-15T22:21:01.203Z,1.08
2023-02-15T22:26:08.095Z,0.87
2023-02-15T22:31:16.121Z,1.08
2023-02-15T22:36:25.326Z,1.17
2023-02-15T22:41:31.581Z,0.93
2023-02-15T22:46:38.444Z,1.02
2023-02-15T22:51:42.845Z,1.17
2023-02-15T22:56:48.934Z,0.90
2023-02-15T23:01:54.490Z,1.05
2023-02-15T23:07:00.766Z,0.90
2023-02-15T23:12:04.335Z,1.00
2023-02-15T23:17:10.326Z,1.00
2023-02-15T23:22:16.091Z,1.10
2023-02-15T23:27:37.726Z,0.93
2023-02-15T23:32:42.684Z,1.10
2023-02-15T23:37:46.317Z,0.93
2023-02-15T23:42:49.757Z,1.30
2023-02-15T23:48:12.089Z,1.15
2023-02-15T23:53:15.594Z,1.30
2023-02-15T23:58:21.626Z,1.23
